Terminal Aerodrome Forecast
Issued by NWS

Home | Current Version | Previous Version | Graphics & Text | Print | Product List | Glossary On
Versions: 1 2 3 4 5 6 7 8 9 10 11 12 13 14 15 16 17 18
000
FTUS42 KMHX 270241 AAA
TAFPGV
TAF AMD
KPGV 270241Z 2703/2724 04003KT 6SM BR BKN025
     FM270500 00000KT 3SM BR BKN015
     FM271500 05008KT P6SM SCT015 BKN040
     FM271700 05009KT P6SM VCTS BKN050CB
      AMD LTD TO CLD VIS AND WIND=

USA.gov is the U.S. government's official web portal to all federal, state and local government web resources and services.